Time;durP1;ratioP1;P1;durP2;ratioP2;P2;SDS_P1;SDS_P2;PMS_P1;PMS_P2;Temp;Humidity;BMP_temperature;BMP_pressure;BME280_temperature;BME280_humidity;BME280_pressure;Samples;Min_cycle;Max_cycle;Signal;HPM_P1;HPM_P2
2022/03/02 00:01:55;;;;;;;;;;;;;;;;;;5087198;28;20010;-55
2022/03/02 00:07:06;;;;;;;;;;;;;;;;;;5090916;28;19938;-57
2022/03/02 00:12:17;;;;;;;;;;;;;;;;;;5090947;28;19911;-57
2022/03/02 00:14:49;;;;;;;;;;;;;;;;;;5090858;28;19936;-55
2022/03/02 00:17:16;;;;;;;;;;;;;;;;;;5090607;28;19959;-57
2022/03/02 00:19:44;;;;;;;;;;;;;;;;;;5073625;28;19904;-55
2022/03/02 00:22:16;;;;;;;;;;;;;;;;;;5090537;28;20310;-54
2022/03/02 00:24:51;;;;;;;;;;;;;;;;;;5091315;28;19904;-57
2022/03/02 00:27:22;;;;;;;;;;;;;;;;;;5094531;28;19915;-57
2022/03/02 00:29:52;;;;;;;;;;;;;;;;;;5112949;28;19904;-56
2022/03/02 00:32:20;;;;;;;;;;;;;;;;;;5112885;28;19932;-56
2022/03/02 00:37:33;;;;;;;;;;;;;;;;;;5101423;28;19904;-57
2022/03/02 00:40:11;;;;;;;;;;;;;;;;;;5112823;28;19926;-57
2022/03/02 00:42:47;;;;;;;;;;;;;;;;;;5088824;28;19912;-57
2022/03/02 00:48:15;;;;;;;;;;;;;;;;;;5066364;28;20421;-57
2022/03/02 00:50:50;;;;;;;;;;;;;;;;;;5070331;28;19905;-57
2022/03/02 00:53:47;;;;;;;;;;;;;;;;;;;;;
2022/03/02 00:56:11;;;;;;;;;;;;;;;;;;5064024;28;19911;-55
2022/03/02 01:07:36;;;;;;;;;;;;;;;;;;5008275;28;19904;-57
2022/03/02 01:10:02;;;;;;;;;;;;;;;;;;5069985;28;19927;-57
2022/03/02 01:12:37;;;;;;;;;;;;;;;;;;5052930;28;19904;-56
2022/03/02 01:15:13;;;;;;;;;;;;;;;;;;;;;
2022/03/02 01:20:38;;;;;;;;;;;;;;;;;;5066141;28;19935;-57
2022/03/02 01:23:19;;;;;;;;;;;;;;;;;;5070222;28;19916;-56
2022/03/02 01:25:51;;;;;;;;;;;;;;;;;;5070018;28;19923;-57
2022/03/02 01:28:46;;;;;;;;;;;;;;;;;;;;;
2022/03/02 01:31:20;;;;;;;;;;;;;;;;;;5111578;28;19943;-56
2022/03/02 01:33:55;;;;;;;;;;;;;;;;;;5094025;28;19904;-56
2022/03/02 01:36:21;;;;;;;;;;;;;;;;;;5111392;28;19907;-56
2022/03/02 01:39:05;;;;;;;;;;;;;;;;;;5111768;28;19911;-57
2022/03/02 01:41:37;;;;;;;;;;;;;;;;;;5090511;28;19918;-57
2022/03/02 01:44:19;;;;;;;;;;;;;;;;;;5111461;28;19922;-59
2022/03/02 01:47:03;;;;;;;;;;;;;;;;;;5111248;28;20007;-57
2022/03/02 01:52:17;;;;;;;;;;;;;;;;;;5110774;28;19911;-57
2022/03/02 01:57:38;;;;;;;;;;;;;;;;;;5029166;28;19920;-57
2022/03/02 02:00:06;;;;;;;;;;;;;;;;;;5102315;28;20242;-57
2022/03/02 02:02:48;;;;;;;;;;;;;;;;;;5111339;28;19919;-57
2022/03/02 02:05:16;;;;;;;;;;;;;;;;;;5111260;28;19908;-57
2022/03/02 02:10:42;;;;;;;;;;;;;;;;;;5079477;28;19904;-57
2022/03/02 02:13:12;;;;;;;;;;;;;;;;;;5111043;28;19905;-57
2022/03/02 02:15:38;;;;;;;;;;;;;;;;;;5110779;28;20003;-57
2022/03/02 02:21:15;;;;;;;;;;;;;;;;;;5048276;28;19913;-57
2022/03/02 02:26:49;;;;;;;;;;;;;;;;;;5110515;28;19911;-56
2022/03/02 02:29:25;;;;;;;;;;;;;;;;;;5109844;28;19912;-56
2022/03/02 02:34:54;;;;;;;;;;;;;;;;;;5106327;28;19915;-57
2022/03/02 02:37:21;;;;;;;;;;;;;;;;;;5110641;28;19950;-57
2022/03/02 02:39:59;;;;;;;;;;;;;;;;;;5110683;28;20287;-56
2022/03/02 02:42:31;;;;;;;;;;;;;;;;;;5110101;28;20373;-55
2022/03/02 02:45:01;;;;;;;;;;;;;;;;;;5110161;28;19939;-57
2022/03/02 02:47:29;;;;;;;;;;;;;;;;;;5110093;28;19946;-56
2022/03/02 02:56:00;;;;;;;;;;;;;;;;;;;;;
2022/03/02 02:58:27;;;;;;;;;;;;;;;;;;5047569;28;19940;-57
2022/03/02 03:00:53;;;;;;;;;;;;;;;;;;5048222;28;19913;-57
2022/03/02 03:09:02;;;;;;;;;;;;;;;;;;5047991;28;19999;-57
2022/03/02 03:14:17;;;;;;;;;;;;;;;;;;5007706;28;20314;-57
2022/03/02 03:16:55;;;;;;;;;;;;;;;;;;5045528;28;19992;-58
2022/03/02 03:22:18;;;;;;;;;;;;;;;;;;5093128;28;19923;-57
2022/03/02 03:24:51;;;;;;;;;;;;;;;;;;5108608;28;19975;-57
2022/03/02 03:27:23;;;;;;;;;;;;;;;;;;5109950;28;20369;-56
2022/03/02 03:29:55;;;;;;;;;;;;;;;;;;5109768;28;19939;-56
2022/03/02 03:32:26;;;;;;;;;;;;;;;;;;5090183;28;20357;-57
2022/03/02 03:35:11;;;;;;;;;;;;;;;;;;5091559;28;19904;-56
2022/03/02 03:40:22;;;;;;;;;;;;;;;;;;5111728;28;19915;-57
2022/03/02 03:42:54;;;;;;;;;;;;;;;;;;5113151;28;19910;-57
2022/03/02 03:45:20;;;;;;;;;;;;;;;;;;5113664;28;19911;-57
2022/03/02 03:47:48;;;;;;;;;;;;;;;;;;5113366;28;19912;-58
2022/03/02 03:50:19;;;;;;;;;;;;;;;;;;5114003;28;19904;-57
2022/03/02 03:52:47;;;;;;;;;;;;;;;;;;5102475;28;19991;-57
2022/03/02 03:58:07;;;;;;;;;;;;;;;;;;5110257;28;19904;-58
2022/03/02 04:00:39;;;;;;;;;;;;;;;;;;5113338;28;19946;-57
2022/03/02 04:03:05;;;;;;;;;;;;;;;;;;5095127;28;19935;-57
2022/03/02 04:05:32;;;;;;;;;;;;;;;;;;5113230;28;19951;-56
2022/03/02 04:08:11;;;;;;;;;;;;;;;;;;5070543;28;19904;-57
2022/03/02 04:10:45;;;;;;;;;;;;;;;;;;5054446;28;19905;-55
2022/03/02 04:18:44;;;;;;;;;;;;;;;;;;5070346;28;19932;-57
2022/03/02 04:21:29;;;;;;;;;;;;;;;;;;5070942;28;19924;-57
2022/03/02 04:23:57;;;;;;;;;;;;;;;;;;5070636;28;19959;-57
2022/03/02 04:26:32;;;;;;;;;;;;;;;;;;5070787;28;19908;-57
2022/03/02 04:29:05;;;;;;;;;;;;;;;;;;5070890;28;19911;-58
2022/03/02 04:31:36;;;;;;;;;;;;;;;;;;5051848;28;19913;-56
2022/03/02 04:34:04;;;;;;;;;;;;;;;;;;5054706;28;19904;-55
2022/03/02 04:36:43;;;;;;;;;;;;;;;;;;5055258;28;19912;-57
2022/03/02 04:39:24;;;;;;;;;;;;;;;;;;5055851;28;19970;-56
2022/03/02 04:41:57;;;;;;;;;;;;;;;;;;5055703;28;19912;-57
2022/03/02 04:44:29;;;;;;;;;;;;;;;;;;5058597;28;19909;-57
2022/03/02 04:46:59;;;;;;;;;;;;;;;;;;5079248;28;20387;-57
2022/03/02 04:49:28;;;;;;;;;;;;;;;;;;5098080;28;19908;-56
2022/03/02 04:52:01;;;;;;;;;;;;;;;;;;5096689;28;19908;-57
2022/03/02 04:57:14;;;;;;;;;;;;;;;;;;5097782;28;19958;-57
2022/03/02 04:59:59;;;;;;;;;;;;;;;;;;5097520;28;20272;-57
2022/03/02 05:05:22;;;;;;;;;;;;;;;;;;5097560;28;19950;-57
2022/03/02 05:08:03;;;;;;;;;;;;;;;;;;5077305;28;19904;-57
2022/03/02 05:10:35;;;;;;;;;;;;;;;;;;5079367;28;19926;-56
2022/03/02 05:13:20;;;;;;;;;;;;;;;;;;5098184;28;19949;-56
2022/03/02 05:18:44;;;;;;;;;;;;;;;;;;5092996;28;19934;-58
2022/03/02 05:21:16;;;;;;;;;;;;;;;;;;5061138;28;19922;-57
2022/03/02 05:23:45;;;;;;;;;;;;;;;;;;5096681;28;19904;-56
2022/03/02 05:29:15;;;;;;;;;;;;;;;;;;5054427;28;19905;-57
2022/03/02 05:31:44;;;;;;;;;;;;;;;;;;5088389;28;20345;-57
2022/03/02 05:34:31;;;;;;;;;;;;;;;;;;5096924;28;19904;-58
2022/03/02 05:39:51;;;;;;;;;;;;;;;;;;5096940;28;20307;-57
2022/03/02 05:42:19;;;;;;;;;;;;;;;;;;5096534;28;20380;-55
2022/03/02 05:47:44;;;;;;;;;;;;;;;;;;5088732;28;19903;-57
2022/03/02 05:50:10;;;;;;;;;;;;;;;;;;5097455;28;19998;-57
2022/03/02 05:52:39;;;;;;;;;;;;;;;;;;5080670;28;19908;-57
2022/03/02 05:55:08;;;;;;;;;;;;;;;;;;5101084;28;19911;-57
2022/03/02 05:57:38;;;;;;;;;;;;;;;;;;5096669;28;19904;-57
2022/03/02 06:00:19;;;;;;;;;;;;;;;;;;5078392;28;19910;-56
2022/03/02 06:03:13;;;;;;;;;;;;;;;;;;;;;
2022/03/02 06:05:48;;;;;;;;;;;;;;;;;;5095051;28;20273;-58
2022/03/02 06:08:24;;;;;;;;;;;;;;;;;;5077205;28;20404;-57
2022/03/02 06:13:54;;;;;;;;;;;;;;;;;;;;;
2022/03/02 06:16:25;;;;;;;;;;;;;;;;;;5096430;28;20238;-56
2022/03/02 06:19:01;;;;;;;;;;;;;;;;;;5077137;28;19915;-58
2022/03/02 06:21:32;;;;;;;;;;;;;;;;;;5090126;28;20354;-57
2022/03/02 06:27:21;;;;;;;;;;;;;;;;;;5032750;28;19943;-58
2022/03/02 06:29:59;;;;;;;;;;;;;;;;;;5016680;28;20519;-57
2022/03/02 06:32:38;;;;;;;;;;;;;;;;;;;;;
2022/03/02 06:35:09;;;;;;;;;;;;;;;;;;5014618;28;19905;-56
2022/03/02 06:37:38;;;;;;;;;;;;;;;;;;5032820;28;20414;-56
2022/03/02 06:40:23;;;;;;;;;;;;;;;;;;;;;
2022/03/02 06:45:48;;;;;;;;;;;;;;;;;;5033223;28;19927;-56
2022/03/02 06:48:30;;;;;;;;;;;;;;;;;;;;;
2022/03/02 06:50:56;;;;;;;;;;;;;;;;;;5052762;28;19904;-57
2022/03/02 06:53:35;;;;;;;;;;;;;;;;;;;;;
2022/03/02 06:58:50;;;;;;;;;;;;;;;;;;5095269;28;20003;-58
2022/03/02 07:01:28;;;;;;;;;;;;;;;;;;5077178;28;19919;-57
2022/03/02 07:04:10;;;;;;;;;;;;;;;;;;5095605;28;19904;-57
2022/03/02 07:06:42;;;;;;;;;;;;;;;;;;5076933;28;20278;-57
2022/03/02 07:09:09;;;;;;;;;;;;;;;;;;5095221;28;19911;-55
2022/03/02 07:11:44;;;;;;;;;;;;;;;;;;5095026;28;19904;-57
2022/03/02 07:14:15;;;;;;;;;;;;;;;;;;5093298;28;20407;-57
2022/03/02 07:16:41;;;;;;;;;;;;;;;;;;5094958;28;19931;-55
2022/03/02 07:19:16;;;;;;;;;;;;;;;;;;5095055;28;19908;-56
2022/03/02 07:21:52;;;;;;;;;;;;;;;;;;5095617;28;19938;-57
2022/03/02 07:24:19;;;;;;;;;;;;;;;;;;5094466;28;20277;-57
2022/03/02 07:26:51;;;;;;;;;;;;;;;;;;5094557;28;19904;-56
2022/03/02 07:29:19;;;;;;;;;;;;;;;;;;5095535;28;19908;-57
2022/03/02 07:31:46;;;;;;;;;;;;;;;;;;5095081;28;19904;-57
2022/03/02 07:37:20;;;;;;;;;;;;;;;;;;5032156;28;19960;-58
2022/03/02 07:39:46;;;;;;;;;;;;;;;;;;5033192;28;19905;-56
2022/03/02 07:42:33;;;;;;;;;;;;;;;;;;5032333;28;20442;-57
2022/03/02 07:48:07;;;;;;;;;;;;;;;;;;5050423;28;20377;-56
2022/03/02 07:50:42;;;;;;;;;;;;;;;;;;5077333;28;20322;-58
2022/03/02 07:58:54;;;;;;;;;;;;;;;;;;5086669;28;19908;-58
2022/03/02 08:01:25;;;;;;;;;;;;;;;;;;5094725;28;19964;-56
2022/03/02 08:03:52;;;;;;;;;;;;;;;;;;5082293;28;19910;-57
2022/03/02 08:06:18;;;;;;;;;;;;;;;;;;5082702;28;19904;-57
2022/03/02 08:08:51;;;;;;;;;;;;;;;;;;5094446;28;20337;-57
2022/03/02 08:14:18;;;;;;;;;;;;;;;;;;5069812;28;19926;-56
2022/03/02 08:16:59;;;;;;;;;;;;;;;;;;5094149;28;19911;-58
2022/03/02 08:19:30;;;;;;;;;;;;;;;;;;5093258;28;19931;-58
2022/03/02 08:22:08;;;;;;;;;;;;;;;;;;5075343;28;19933;-58
2022/03/02 08:24:41;;;;;;;;;;;;;;;;;;5093817;28;19908;-55
2022/03/02 08:30:12;;;;;;;;;;;;;;;;;;;;;
2022/03/02 08:32:50;;;;;;;;;;;;;;;;;;5098030;28;19904;-57
2022/03/02 08:35:19;;;;;;;;;;;;;;;;;;5097339;28;20002;-57
2022/03/02 08:40:31;;;;;;;;;;;;;;;;;;5097719;28;19954;-58
2022/03/02 08:43:17;;;;;;;;;;;;;;;;;;5095882;28;19943;-57
2022/03/02 08:45:43;;;;;;;;;;;;;;;;;;5097481;28;19908;-57
2022/03/02 08:48:12;;;;;;;;;;;;;;;;;;5078604;28;19967;-57
2022/03/02 08:53:36;;;;;;;;;;;;;;;;;;5079344;28;19947;-56
2022/03/02 08:59:14;;;;;;;;;;;;;;;;;;5034651;28;19904;-57
2022/03/02 09:01:42;;;;;;;;;;;;;;;;;;5034431;28;20355;-57
2022/03/02 09:07:12;;;;;;;;;;;;;;;;;;5044060;28;20273;-57
2022/03/02 09:09:50;;;;;;;;;;;;;;;;;;5097148;28;20403;-55
2022/03/02 09:12:19;;;;;;;;;;;;;;;;;;5096867;28;19903;-56
2022/03/02 09:14:54;;;;;;;;;;;;;;;;;;5096855;28;19905;-56
2022/03/02 09:17:25;;;;;;;;;;;;;;;;;;5080155;28;20338;-56
2022/03/02 09:26:17;;;;;;;;;;;;;;;;;;5090053;28;19911;-57
2022/03/02 09:31:18;;;;;;;;;;;;;;;;;;5083380;28;19904;-57
2022/03/02 09:33:55;;;;;;;;;;;;;;;;;;;;;
2022/03/02 09:39:33;;;;;;;;;;;;;;;;;;5096559;28;20361;-57
2022/03/02 09:42:02;;;;;;;;;;;;;;;;;;5078075;28;20311;-56
2022/03/02 09:44:34;;;;;;;;;;;;;;;;;;5095167;28;20362;-57
2022/03/02 09:47:02;;;;;;;;;;;;;;;;;;5096709;28;19911;-57
2022/03/02 09:49:37;;;;;;;;;;;;;;;;;;5078084;28;20353;-56
2022/03/02 09:54:52;;;;;;;;;;;;;;;;;;5096367;28;19911;-57
2022/03/02 09:57:24;;;;;;;;;;;;;;;;;;5097337;28;19994;-56
2022/03/02 10:00:04;;;;;;;;;;;;;;;;;;5096417;28;20397;-57
2022/03/02 10:02:33;;;;;;;;;;;;;;;;;;5076146;28;19912;-57
2022/03/02 10:05:08;;;;;;;;;;;;;;;;;;5077859;28;20404;-56
2022/03/02 10:07:36;;;;;;;;;;;;;;;;;;5096441;28;19904;-56
2022/03/02 10:10:04;;;;;;;;;;;;;;;;;;5077597;28;19904;-57
2022/03/02 10:12:49;;;;;;;;;;;;;;;;;;;;;
2022/03/02 10:15:22;;;;;;;;;;;;;;;;;;5100120;28;20007;-57
2022/03/02 10:18:01;;;;;;;;;;;;;;;;;;5075435;28;19904;-54
2022/03/02 10:23:22;;;;;;;;;;;;;;;;;;5012307;28;20007;-57
2022/03/02 10:29:03;;;;;;;;;;;;;;;;;;;;;
2022/03/02 10:34:30;;;;;;;;;;;;;;;;;;5032815;28;19917;-57
2022/03/02 10:36:56;;;;;;;;;;;;;;;;;;5076554;28;19907;-57
2022/03/02 10:39:50;;;;;;;;;;;;;;;;;;5095212;28;19958;-57
2022/03/02 10:45:04;;;;;;;;;;;;;;;;;;5095501;28;19911;-56
2022/03/02 10:47:42;;;;;;;;;;;;;;;;;;5095266;28;20364;-58
2022/03/02 10:53:13;;;;;;;;;;;;;;;;;;5032427;28;20031;-55
2022/03/02 10:55:42;;;;;;;;;;;;;;;;;;5041666;28;19911;-57
2022/03/02 10:58:08;;;;;;;;;;;;;;;;;;5094642;28;19911;-58
2022/03/02 11:00:34;;;;;;;;;;;;;;;;;;5076115;28;19994;-56
2022/03/02 11:03:07;;;;;;;;;;;;;;;;;;5094859;28;19915;-56
2022/03/02 11:05:52;;;;;;;;;;;;;;;;;;5071317;28;19907;-57
2022/03/02 11:08:18;;;;;;;;;;;;;;;;;;5095660;28;20426;-57
2022/03/02 11:10:43;;;;;;;;;;;;;;;;;;5094959;28;19910;-57
2022/03/02 11:13:18;;;;;;;;;;;;;;;;;;5094945;28;19907;-57
2022/03/02 11:15:54;;;;;;;;;;;;;;;;;;5076361;28;19904;-55
2022/03/02 11:18:20;;;;;;;;;;;;;;;;;;5075908;28;19904;-58
2022/03/02 11:20:49;;;;;;;;;;;;;;;;;;5094068;28;20349;-57
2022/03/02 11:23:24;;;;;;;;;;;;;;;;;;5095073;28;20333;-57
2022/03/02 11:28:51;;;;;;;;;;;;;;;;;;5033245;28;19904;-56
2022/03/02 11:31:26;;;;;;;;;;;;;;;;;;5032468;28;19909;-56
2022/03/02 11:33:52;;;;;;;;;;;;;;;;;;4999378;28;19956;-57
2022/03/02 11:39:02;;;;;;;;;;;;;;;;;;5032592;28;19959;-57
2022/03/02 11:41:33;;;;;;;;;;;;;;;;;;5015645;28;19913;-57
2022/03/02 11:47:00;;;;;;;;;;;;;;;;;;;;;
2022/03/02 11:52:18;;;;;;;;;;;;;;;;;;5031044;28;19905;-56
2022/03/02 11:54:53;;;;;;;;;;;;;;;;;;5030021;28;19905;-57
2022/03/02 11:57:19;;;;;;;;;;;;;;;;;;5032796;28;20020;-56
2022/03/02 11:59:58;;;;;;;;;;;;;;;;;;;;;
2022/03/02 12:05:10;;;;;;;;;;;;;;;;;;5036424;28;19927;-57
2022/03/02 12:07:46;;;;;;;;;;;;;;;;;;5036074;28;20020;-55
2022/03/02 12:10:24;;;;;;;;;;;;;;;;;;5079461;28;19950;-56
2022/03/02 12:12:56;;;;;;;;;;;;;;;;;;5098268;28;19948;-57
2022/03/02 12:21:48;;;;;;;;;;;;;;;;;;5097880;28;19916;-56
2022/03/02 12:24:12;;;;;;;;;;;;;;;;;;5091645;28;19904;-57
2022/03/02 12:26:45;;;;;;;;;;;;;;;;;;5098971;28;19904;-57
2022/03/02 12:34:40;;;;;;;;;;;;;;;;;;5101829;28;20269;-57
2022/03/02 12:37:12;;;;;;;;;;;;;;;;;;5095207;28;19911;-57
2022/03/02 12:39:39;;;;;;;;;;;;;;;;;;5097298;28;19911;-58
2022/03/02 12:45:25;;;;;;;;;;;;;;;;;;5061801;28;19911;-57
2022/03/02 12:48:05;;;;;;;;;;;;;;;;;;;;;
2022/03/02 12:50:47;;;;;;;;;;;;;;;;;;5095302;28;19995;-55
2022/03/02 12:53:19;;;;;;;;;;;;;;;;;;5080240;28;19982;-57
2022/03/02 12:58:31;;;;;;;;;;;;;;;;;;5097271;28;19957;-55
2022/03/02 13:01:05;;;;;;;;;;;;;;;;;;5096942;28;19912;-57
2022/03/02 13:03:38;;;;;;;;;;;;;;;;;;5096998;28;19949;-57
2022/03/02 13:06:07;;;;;;;;;;;;;;;;;;5096862;28;19908;-55
2022/03/02 13:11:28;;;;;;;;;;;;;;;;;;5088218;28;19939;-55
2022/03/02 13:13:57;;;;;;;;;;;;;;;;;;5096510;28;19904;-57
2022/03/02 13:16:51;;;;;;;;;;;;;;;;;;;;;
2022/03/02 13:19:15;;;;;;;;;;;;;;;;;;5094471;28;19907;-58
2022/03/02 13:21:41;;;;;;;;;;;;;;;;;;5096182;28;20381;-56
2022/03/02 13:24:10;;;;;;;;;;;;;;;;;;5097011;28;19911;-57
2022/03/02 13:26:48;;;;;;;;;;;;;;;;;;5095394;28;20347;-57
2022/03/02 13:29:16;;;;;;;;;;;;;;;;;;5097746;28;19926;-56
2022/03/02 13:31:45;;;;;;;;;;;;;;;;;;5096787;28;20281;-57
2022/03/02 13:34:24;;;;;;;;;;;;;;;;;;5096584;28;20369;-57
2022/03/02 13:37:10;;;;;;;;;;;;;;;;;;;;;
2022/03/02 13:39:52;;;;;;;;;;;;;;;;;;5096631;28;19903;-56
2022/03/02 13:45:43;;;;;;;;;;;;;;;;;;5072711;28;19962;-55
2022/03/02 13:48:23;;;;;;;;;;;;;;;;;;5093030;28;20010;-55
2022/03/02 13:50:57;;;;;;;;;;;;;;;;;;5095483;28;19926;-57
2022/03/02 13:53:26;;;;;;;;;;;;;;;;;;5093549;28;19930;-57
2022/03/02 13:55:52;;;;;;;;;;;;;;;;;;5096087;28;19914;-56
2022/03/02 14:06:41;;;;;;;;;;;;;;;;;;5096369;28;20265;-57
2022/03/02 14:15:03;;;;;;;;;;;;;;;;;;5023375;28;20045;-57
2022/03/02 14:17:40;;;;;;;;;;;;;;;;;;5078344;28;20443;-55
2022/03/02 14:20:12;;;;;;;;;;;;;;;;;;5077559;28;20288;-56
2022/03/02 14:22:47;;;;;;;;;;;;;;;;;;5095505;28;19961;-57
2022/03/02 14:25:23;;;;;;;;;;;;;;;;;;;;;
2022/03/02 14:27:54;;;;;;;;;;;;;;;;;;5089318;28;19995;-57
2022/03/02 14:30:42;;;;;;;;;;;;;;;;;;5096718;28;19904;-57
2022/03/02 14:33:21;;;;;;;;;;;;;;;;;;5076288;28;20357;-56
2022/03/02 14:35:50;;;;;;;;;;;;;;;;;;5096544;28;20338;-57
2022/03/02 14:41:01;;;;;;;;;;;;;;;;;;5095908;28;19915;-57
2022/03/02 14:43:45;;;;;;;;;;;;;;;;;;5075979;28;19908;-57
2022/03/02 14:46:30;;;;;;;;;;;;;;;;;;;;;
2022/03/02 14:48:56;;;;;;;;;;;;;;;;;;5092999;28;19968;-56
2022/03/02 14:51:38;;;;;;;;;;;;;;;;;;5095967;28;20349;-56
2022/03/02 14:54:06;;;;;;;;;;;;;;;;;;5096181;28;19939;-57
2022/03/02 14:56:37;;;;;;;;;;;;;;;;;;5095516;28;20349;-57
2022/03/02 15:02:01;;;;;;;;;;;;;;;;;;5080127;28;19977;-58
2022/03/02 15:04:28;;;;;;;;;;;;;;;;;;5094498;28;19908;-57
2022/03/02 15:06:57;;;;;;;;;;;;;;;;;;5076136;28;20273;-56
2022/03/02 15:12:14;;;;;;;;;;;;;;;;;;5085697;28;19911;-57
2022/03/02 15:17:31;;;;;;;;;;;;;;;;;;5094832;28;20020;-57
2022/03/02 15:22:51;;;;;;;;;;;;;;;;;;5093231;28;19916;-57
2022/03/02 15:25:20;;;;;;;;;;;;;;;;;;5094098;28;20381;-58
2022/03/02 15:27:52;;;;;;;;;;;;;;;;;;5076451;28;19904;-58
2022/03/02 15:30:21;;;;;;;;;;;;;;;;;;5095139;28;19904;-58
2022/03/02 15:33:03;;;;;;;;;;;;;;;;;;;;;
2022/03/02 15:35:43;;;;;;;;;;;;;;;;;;5095673;28;20086;-58
2022/03/02 15:38:26;;;;;;;;;;;;;;;;;;;;;
2022/03/02 15:40:52;;;;;;;;;;;;;;;;;;5098685;28;20387;-58
2022/03/02 15:46:15;;;;;;;;;;;;;;;;;;5036037;28;19916;-58
2022/03/02 15:51:38;;;;;;;;;;;;;;;;;;5036591;28;20325;-59
2022/03/02 15:57:01;;;;;;;;;;;;;;;;;;5036079;28;19956;-59
2022/03/02 16:02:21;;;;;;;;;;;;;;;;;;5036525;28;19959;-59
2022/03/02 16:05:02;;;;;;;;;;;;;;;;;;5019438;28;20011;-59
2022/03/02 16:07:31;;;;;;;;;;;;;;;;;;5035810;28;19905;-59
2022/03/02 16:12:53;;;;;;;;;;;;;;;;;;5036047;28;19911;-59
2022/03/02 16:18:15;;;;;;;;;;;;;;;;;;5098940;28;19907;-59
2022/03/02 16:20:51;;;;;;;;;;;;;;;;;;;;;
2022/03/02 16:23:18;;;;;;;;;;;;;;;;;;5093346;28;19922;-59
2022/03/02 16:28:31;;;;;;;;;;;;;;;;;;5098070;28;20007;-59
2022/03/02 16:31:10;;;;;;;;;;;;;;;;;;5078037;28;20345;-59
2022/03/02 16:36:30;;;;;;;;;;;;;;;;;;5087410;28;19915;-59
2022/03/02 16:38:59;;;;;;;;;;;;;;;;;;5075218;28;19927;-59
2022/03/02 16:41:28;;;;;;;;;;;;;;;;;;5078851;28;19919;-59
2022/03/02 16:43:58;;;;;;;;;;;;;;;;;;5097885;28;20349;-59
2022/03/02 16:46:28;;;;;;;;;;;;;;;;;;5078039;28;20334;-59
2022/03/02 16:48:56;;;;;;;;;;;;;;;;;;5097954;28;19904;-59
2022/03/02 16:51:31;;;;;;;;;;;;;;;;;;5098127;28;19912;-59
2022/03/02 17:02:24;;;;;;;;;;;;;;;;;;5097748;28;19923;-59
2022/03/02 17:10:47;;;;;;;;;;;;;;;;;;;;;
2022/03/02 17:13:33;;;;;;;;;;;;;;;;;;;;;
2022/03/02 17:16:02;;;;;;;;;;;;;;;;;;5085104;28;20364;-58
2022/03/02 17:18:40;;;;;;;;;;;;;;;;;;5078925;28;20346;-59
2022/03/02 17:24:05;;;;;;;;;;;;;;;;;;5068314;28;20411;-59
2022/03/02 17:26:34;;;;;;;;;;;;;;;;;;5096771;28;19971;-59
2022/03/02 17:29:09;;;;;;;;;;;;;;;;;;5073591;28;19999;-59
2022/03/02 17:31:50;;;;;;;;;;;;;;;;;;5044020;28;19987;-59
2022/03/02 17:34:19;;;;;;;;;;;;;;;;;;5097453;28;20323;-59
2022/03/02 17:36:45;;;;;;;;;;;;;;;;;;5093841;28;19908;-58
2022/03/02 17:39:32;;;;;;;;;;;;;;;;;;5078839;28;19995;-59
2022/03/02 17:41:58;;;;;;;;;;;;;;;;;;5096241;28;19912;-59
2022/03/02 18:00:48;;;;;;;14.32;10.60;;;;;;;;;;5107372;28;20164;-58
2022/03/02 18:03:34;;;;;;;12.95;10.02;;;;;;;;;;5130842;28;20486;-58
2022/03/02 18:06:00;;;;;;;12.43;9.48;;;;;;;;;;5132404;28;20031;-57
2022/03/02 18:09:07;;;;;;;12.60;9.50;;;;;;;;;;5125873;28;20468;-57
2022/03/02 18:12:12;;;;;;;19.73;10.00;;;;;;;;;;5031946;28;20475;-58
2022/03/02 18:15:10;;;;;;;14.68;10.38;;;;;;;;;;5053884;28;20112;-58
2022/03/02 18:17:50;;;;;;;13.88;9.65;;;;;;;;;;5109790;28;20493;-58
2022/03/02 18:21:00;;;;;;;;;;;;;;;;;;;;;
2022/03/02 18:23:29;;;;;;;15.10;9.55;;;;;;;;;;5081659;27;20050;-58
2022/03/02 18:35:04;;;;;;;12.68;9.60;;;;;;;;;;5132018;28;20038;-58
2022/03/02 18:41:12;;;;;;;12.38;9.07;;;;;;;;;;5069168;28;20187;-58
2022/03/02 18:44:13;;;;;;;;;;;;;;;;;;;;;
2022/03/02 18:49:51;;;;;;;14.68;8.82;;;;;;;;;;5111535;28;20042;-58
2022/03/02 18:52:21;;;;;;;15.25;9.75;;;;;;;;;;5109198;28;20035;-58
2022/03/02 18:55:07;;;;;;;12.25;10.82;;;;;;;;;;5104893;28;20544;-58
2022/03/02 19:01:01;;;;;;;12.35;10.25;;;;;;;;;;5095239;28;20039;-58
2022/03/02 19:03:51;;;;;;;14.43;10.50;;;;;;;;;;5095452;28;20029;-58
2022/03/02 19:12:34;;;;;;;9.60;7.30;;;;;;;;;;5095290;28;20027;-58
2022/03/02 19:18:30;;;;;;;10.93;9.10;;;;;;;;;;5035982;28;20064;-58
2022/03/02 19:21:17;;;;;;;12.15;9.45;;;;;;;;;;5095546;28;20020;-58
2022/03/02 19:27:09;;;;;;;12.30;9.30;;;;;;;;;;5081814;28;20071;-58
2022/03/02 19:29:51;;;;;;;14.45;11.10;;;;;;;;;;5096968;28;20542;-58
2022/03/02 19:32:23;;;;;;;15.30;10.30;;;;;;;;;;5097466;28;20027;-58
2022/03/02 19:35:10;;;;;;;13.23;10.23;;;;;;;;;;5098295;28;20353;-58
2022/03/02 19:39:55;;;;;;;11.30;9.30;;;;;;;;;;5097979;28;20440;-58
2022/03/02 19:41:15;;;;;;;16.52;10.70;;;;;;;;;;5093464;28;20028;-58
2022/03/02 19:47:32;;;;;;;12.02;9.75;;;;;;;;;;5084523;28;20036;-58
2022/03/02 19:50:38;;;;;;;14.70;9.57;;;;;;;;;;5096086;28;20346;-58
2022/03/02 19:53:20;;;;;;;16.08;9.73;;;;;;;;;;5088992;28;20546;-58
2022/03/02 19:56:31;;;;;;;15.25;9.30;;;;;;;;;;5094476;28;20063;-58
2022/03/02 19:59:08;;;;;;;12.85;9.43;;;;;;;;;;5097015;28;20151;-58
2022/03/02 20:02:02;;;;;;;13.38;9.73;;;;;;;;;;5096531;28;20020;-58
2022/03/02 20:04:52;;;;;;;14.00;9.77;;;;;;;;;;5096453;28;20040;-58
2022/03/02 20:07:33;;;;;;;;;;;;;;;;;;5097581;28;20101;-57
2022/03/02 20:10:08;;;;;;;;;;;;;;;;;;5096327;28;19911;-58
2022/03/02 20:12:50;;;;;;;10.40;7.93;;;;;;;;;;5099742;28;19907;-58
2022/03/02 20:15:54;;;;;;;12.93;8.70;;;;;;;;;;5095828;28;20031;-58
2022/03/02 20:24:53;;;;;;;;;;;;;;;;;;;;;
2022/03/02 20:27:55;;;;;;;14.43;10.27;;;;;;;;;;5093466;28;20464;-58
2022/03/02 20:30:49;;;;;;;13.93;9.60;;;;;;;;;;5093427;28;20040;-58
2022/03/02 20:33:44;;;;;;;13.73;10.18;;;;;;;;;;5093747;28;20066;-58
2022/03/02 20:36:25;;;;;;;16.27;9.98;;;;;;;;;;5090798;28;20040;-58
2022/03/02 20:42:34;;;;;;;;;;;;;;;;;;;;;
2022/03/02 20:48:35;;;;;;;12.98;10.23;;;;;;;;;;5032390;28;20084;-58
2022/03/02 20:51:09;;;;;;;10.88;7.72;;;;;;;;;;5085807;28;20028;-58
2022/03/02 20:54:24;;;;;;;;;;;;;;;;;;;;;
2022/03/02 20:57:18;;;;;;;16.63;11.05;;;;;;;;;;5072126;28;20060;-58
2022/03/02 21:00:00;;;;;;;12.30;10.50;;;;;;;;;;5071285;28;20123;-58
2022/03/02 21:05:44;;;;;;;12.15;8.77;;;;;;;;;;5064205;28;20163;-58
2022/03/02 21:08:35;;;;;;;14.40;10.88;;;;;;;;;;5109115;28;20457;-58
2022/03/02 21:14:43;;;;;;;13.13;9.93;;;;;;;;;;5094272;28;20473;-58
2022/03/02 21:20:02;;;;;;;16.67;10.65;;;;;;;;;;5095222;28;20067;-58
2022/03/02 21:22:50;;;;;;;14.82;11.43;;;;;;;;;;5095613;28;20047;-58
2022/03/02 21:28:44;;;;;;;16.33;9.75;;;;;;;;;;5031734;28;20065;-58
2022/03/02 21:34:52;;;;;;;9.90;8.70;;;;;;;;;;5084169;28;20473;-58
2022/03/02 21:37:41;;;;;;;;;;;;;;;;;;;;;
2022/03/02 21:43:47;;;;;;;11.93;9.68;;;;;;;;;;5010469;28;20156;-58
2022/03/02 21:46:20;;;;;;;13.00;11.02;;;;;;;;;;5042712;28;20059;-58
2022/03/02 21:49:15;;;;;;;11.98;9.50;;;;;;;;;;5036391;28;20067;-58
2022/03/02 21:52:04;;;;;;;11.80;9.68;;;;;;;;;;5035163;28;20474;-58
2022/03/02 21:54:52;;;;;;;13.35;9.27;;;;;;;;;;5052350;28;20470;-58
2022/03/02 22:00:28;;;;;;;14.33;10.50;;;;;;;;;;5052486;28;20083;-58
2022/03/02 22:03:07;;;;;;;12.40;9.70;;;;;;;;;;5063638;28;20048;-59
2022/03/02 22:09:14;;;;;;;14.90;10.15;;;;;;;;;;5056566;28;20060;-58
2022/03/02 22:11:50;;;;;;;13.68;10.85;;;;;;;;;;5074018;28;20040;-58
2022/03/02 22:14:45;;;;;;;12.82;10.93;;;;;;;;;;5107787;28;20042;-58
2022/03/02 22:20:30;;;;;;;14.07;9.98;;;;;;;;;;5107391;28;20057;-58
2022/03/02 22:23:34;;;;;;;10.13;8.98;;;;;;;;;;5105775;28;20028;-58
2022/03/02 22:26:08;;;;;;;12.52;9.27;;;;;;;;;;5103094;28;20038;-58
2022/03/02 22:29:00;;;;;;;13.07;10.68;;;;;;;;;;5107099;28;20017;-58
2022/03/02 22:32:08;;;;;;;14.88;9.07;;;;;;;;;;5106584;28;20028;-59
2022/03/02 22:34:38;;;;;;;12.55;11.13;;;;;;;;;;5110800;28;20020;-58
2022/03/02 22:37:28;;;;;;;12.05;10.32;;;;;;;;;;5109078;28;20032;-59
2022/03/02 22:40:36;;;;;;;11.55;9.93;;;;;;;;;;5110940;28;20020;-58
2022/03/02 22:43:03;;;;;;;11.68;10.45;;;;;;;;;;5109664;28;20040;-58
2022/03/02 22:45:44;;;;;;;16.83;9.82;;;;;;;;;;5110748;28;20027;-59
2022/03/02 22:48:29;;;;;;;19.52;11.40;;;;;;;;;;5109844;28;20115;-58
2022/03/02 22:54:34;;;;;;;14.68;9.60;;;;;;;;;;5048054;28;20552;-58
2022/03/02 22:57:09;;;;;;;17.65;10.73;;;;;;;;;;5048292;28;20045;-58
2022/03/02 22:59:49;;;;;;;11.98;10.43;;;;;;;;;;5047070;28;20064;-58
2022/03/02 23:02:35;;;;;;;12.98;8.90;;;;;;;;;;5076658;28;20048;-58
2022/03/02 23:16:36;;;;;;;19.08;10.20;;;;;;;;;;5110236;28;20035;-59
2022/03/02 23:21:57;;;;;;;15.05;10.90;;;;;;;;;;5109977;28;20102;-59
2022/03/02 23:27:52;;;;;;;13.77;10.48;;;;;;;;;;5086190;28;20032;-58
2022/03/02 23:30:40;;;;;;;13.60;11.00;;;;;;;;;;5108439;28;20032;-58
2022/03/02 23:33:26;;;;;;;19.02;10.32;;;;;;;;;;5104445;28;20035;-58
2022/03/02 23:36:27;;;;;;;11.20;9.23;;;;;;;;;;5110448;28;20039;-59
2022/03/02 23:42:30;;;;;;;12.57;10.88;;;;;;;;;;5110384;28;20111;-58
2022/03/02 23:44:57;;;;;;;12.20;9.77;;;;;;;;;;5110031;28;20035;-58
2022/03/02 23:50:18;;;;;;;12.50;10.80;;;;;;;;;;5109040;28;20420;-58
2022/03/02 23:53:00;;;;;;;;;;;;;;;;;;;;;
2022/03/02 23:59:00;;;;;;;23.42;9.90;;;;;;;;;;5045138;28;20057;-58
